Terminal Aerodrome Forecast
Issued by NWS

Home | Current Version | Previous Version | Text Only | Print | Product List | Glossary On
Versions: 1 2 3 4 5 6 7 8 9 10 11 12 13 14
000
FTUS41 KRNK 191722
TAFBCB
TAF
KBCB 191722Z 1918/2018 25008KT P6SM SCT040
     FM200100 VRB03KT P6SM FEW250
     FM200800 00000KT 2SM BR SCT003
     FM201000 00000KT 1/2SM FG SCT001
     FM201200 00000KT 4SM BR FEW010
     FM201400 VRB03KT P6SM FEW030=

USA.gov is the U.S. government's official web portal to all federal, state and local government web resources and services.